Bragg City, MO (63827)

12:54 AM CDT on July 26, 2014 (GMT -0500)
Peach Orchard (KMOGIDEO2) Elev 263 ft | 36.37 °N, 89.94 °W | Change Station

Current weather conditions updated 36 seconds ago

Clear
Clear
70.1 °F
Feels Like 70.1 °F
N
0.0
Wind Variable Wind from South
Gusts 0.0 mph

Today is forecast to be Much Warmer than yesterday.

Today
High -- | Low -- °F
--% Chance of Precip.
Yesterday
High -- | Low -- °F
Precip. -- in
6:01 AM 8:10 PM
Waning Crescent, 0% visible
Pressure 29.98 in
Visibility 10.0 miles
Clouds Clear
Dew Point 65 °F
Humidity 85%
Rainfall 0.00 in
Snow Depth Not available.
UV 0 out of 12
Pollen 6.50 out of 12
Air Quality Not available.
Flu Activity Not available.
METAR KHKA 260453Z AUTO 17004KT 10SM CLR 22/19 A2998 RMK AO2 SLP150 T02220194

More Conditions Fewer Conditions

Pressure 29.98 in
Visibility 10.0 miles
Clouds Clear
Dew Point 65 °F
Humidity 85%
Rainfall 0.00 in
Snow Depth Not available.
UV 0 out of 12
Pollen 6.50 out of 12
Air Quality Not available.
Flu Activity Not available.
METAR KHKA 260453Z AUTO 17004KT 10SM CLR 22/19 A2998 RMK AO2 SLP150 T02220194

More Conditions Fewer Conditions

10-Day Weather Forecast

Almanac

Astronomy

Jul. 26, 2014 Rise Set
Actual Time 6:01 AM CDT 8:10 PM CDT
Civil Twilight 5:32 AM CDT 8:38 PM CDT
Nautical Twilight 4:57 AM CDT 9:14 PM CDT
Astronomical Twilight 4:19 AM CDT 9:52 PM CDT
Moon 5:52 AM CDT 7:47 PM CDT
Length of Visible Light 15h 06m
Length of Day
14h 08m
Tomorrow will be 1m 34s shorter.
Waning Crescent, 0% of the Moon is Illuminated
Today
Waning Crescent
Jul 26
New
Aug 3
First Quarter
Aug 10
Full
Aug 17
Last Quarter

Today's Extremes

State Highs State Lows

Community

WunderPhotos

Upload Photos

1,737,523 photos uploaded!

Nearby

Snow Depth

Station Depth Elevation
No new snow has been reported.

Earthquake Activity

City Distance Mag. Time & Date
No recent earthquake activity has been reported nearby.
Minimum magnitude displayed is 2.5.

Coastal Water Temperatures

Place Temperature
No Stations Reporting

Nearby Weather Stations

Station Location Temp. Heat Index Dew Point Humidity Wind Precip. Elev Updated Type
Peach Orchard, Gideon, MO 70.1 °F - 65 °F 85% South  at  0.0 mph 0.00 in / hr 263 ft 12:54 AM CDT Rapid Fire
Kennett E911, Kennett, MO 73.9 °F 75 °F 66 °F 76% WSW  at  1.0 mph 0.00 in / hr 262 ft 12:54 AM CDT Rapid Fire
KC0UFP WX, Kennett, MO 70.5 °F 70 °F 65 °F 82% WSW  at  2.7 mph - / hr 262 ft 12:49 AM CDT Normal
MesoWest PIGGOT , Piggott, AR 73 °F 71 °F - - North  at  - 0.00 in / hr 287 ft 11:30 PM CDT MADIS
MesoWest GRNWAY , Rector, AR 69 °F - - - North  at  - 0.00 in / hr 293 ft 11:45 PM CDT MADIS

Show More Stations Show Fewer Stations